Time;durP1;ratioP1;P1;durP2;ratioP2;P2;SDS_P1;SDS_P2;PMS_P1;PMS_P2;Temp;Humidity;BMP_temperature;BMP_pressure;BME280_temperature;BME280_humidity;BME280_pressure;Samples;Min_cycle;Max_cycle;Signal;HPM_P1;HPM_P2
2023/08/10 00:00:08;;;;;;;56.50;2.17;;;;;;;;;;5074104;28;20436;-69
2023/08/10 00:02:36;;;;;;;56.80;2.50;;;;;;;;;;5073687;28;20533;-69
2023/08/10 00:05:03;;;;;;;56.67;2.30;;;;;;;;;;5073765;28;20444;-68
2023/08/10 00:07:33;;;;;;;56.80;2.50;;;;;;;;;;5074067;28;20454;-68
2023/08/10 00:10:00;;;;;;;56.60;2.47;;;;;;;;;;5073797;28;20483;-68
2023/08/10 00:12:27;;;;;;;56.47;2.20;;;;;;;;;;5073506;28;20985;-69
2023/08/10 00:14:54;;;;;;;56.77;2.33;;;;;;;;;;5073785;28;20927;-68
2023/08/10 00:17:21;;;;;;;57.00;2.57;;;;;;;;;;5073662;28;20440;-69
2023/08/10 00:19:50;;;;;;;57.30;2.97;;;;;;;;;;5073761;28;20458;-68
2023/08/10 00:22:17;;;;;;;56.43;2.03;;;;;;;;;;5073427;28;20450;-69
2023/08/10 00:24:44;;;;;;;58.20;3.73;;;;;;;;;;5073622;28;20971;-68
2023/08/10 00:27:12;;;;;;;57.00;2.53;;;;;;;;;;5073674;28;20462;-68
2023/08/10 00:29:39;;;;;;;56.90;2.70;;;;;;;;;;5073584;28;20851;-69
2023/08/10 00:32:06;;;;;;;56.70;2.30;;;;;;;;;;5073150;28;20443;-68
2023/08/10 00:34:33;;;;;;;56.77;2.60;;;;;;;;;;5073623;28;20469;-68
2023/08/10 00:37:01;;;;;;;56.83;2.43;;;;;;;;;;5073500;28;20451;-68
2023/08/10 00:39:29;;;;;;;56.57;2.30;;;;;;;;;;5073599;28;20446;-69
2023/08/10 00:41:57;;;;;;;56.57;2.33;;;;;;;;;;5072997;28;20458;-68
2023/08/10 00:44:24;;;;;;;56.80;2.40;;;;;;;;;;5073382;28;20471;-69
2023/08/10 00:46:51;;;;;;;56.50;2.30;;;;;;;;;;5073706;28;20440;-68
2023/08/10 00:49:18;;;;;;;56.47;2.30;;;;;;;;;;5072858;28;20479;-68
2023/08/10 00:51:45;;;;;;;56.67;2.23;;;;;;;;;;5072998;28;20455;-68
2023/08/10 00:54:14;;;;;;;56.57;2.10;;;;;;;;;;5073199;28;20466;-68
2023/08/10 00:56:41;;;;;;;56.60;2.20;;;;;;;;;;5072992;28;20438;-68
2023/08/10 00:59:09;;;;;;;56.60;2.00;;;;;;;;;;5072868;28;20444;-69
2023/08/10 01:01:36;;;;;;;57.00;2.57;;;;;;;;;;5073025;28;20450;-69
2023/08/10 01:04:03;;;;;;;56.63;2.10;;;;;;;;;;5072876;28;20459;-68
2023/08/10 01:06:34;;;;;;;56.67;2.47;;;;;;;;;;5073102;28;20451;-68
2023/08/10 01:09:06;;;;;;;56.87;2.50;;;;;;;;;;5073017;28;20451;-69
2023/08/10 01:11:39;;;;;;;57.10;2.70;;;;;;;;;;5072554;28;20436;-69
2023/08/10 01:14:10;;;;;;;57.10;2.40;;;;;;;;;;5072559;28;20481;-69
2023/08/10 01:16:39;;;;;;;56.77;2.70;;;;;;;;;;5072797;28;20439;-68
2023/08/10 01:19:08;;;;;;;56.67;2.40;;;;;;;;;;5072479;28;20455;-68
2023/08/10 01:21:39;;;;;;;56.43;2.10;;;;;;;;;;5072417;28;20443;-69
2023/08/10 01:24:12;;;;;;;56.80;2.30;;;;;;;;;;5072349;28;20482;-69
2023/08/10 01:26:40;;;;;;;56.70;2.13;;;;;;;;;;5072734;28;20450;-69
2023/08/10 01:29:08;;;;;;;56.70;2.30;;;;;;;;;;5072488;28;20466;-68
2023/08/10 01:31:35;;;;;;;57.40;2.70;;;;;;;;;;5072214;28;20479;-69
2023/08/10 01:34:02;;;;;;;56.90;2.20;;;;;;;;;;5072212;28;20876;-69
2023/08/10 01:36:29;;;;;;;56.57;2.20;;;;;;;;;;5072074;28;20958;-69
2023/08/10 01:38:57;;;;;;;56.90;2.50;;;;;;;;;;5072251;28;20962;-69
2023/08/10 01:41:24;;;;;;;56.80;2.27;;;;;;;;;;5070781;28;20439;-68
2023/08/10 01:43:52;;;;;;;56.60;2.30;;;;;;;;;;5071971;28;20463;-69
2023/08/10 01:46:21;;;;;;;56.60;2.40;;;;;;;;;;5071953;28;20439;-68
2023/08/10 01:48:49;;;;;;;56.57;2.30;;;;;;;;;;5072236;28;20497;-68
2023/08/10 01:51:18;;;;;;;56.57;2.30;;;;;;;;;;5072064;28;20855;-68
2023/08/10 01:53:47;;;;;;;56.67;2.37;;;;;;;;;;5071658;28;20465;-68
2023/08/10 01:56:14;;;;;;;57.00;2.43;;;;;;;;;;5071859;28;20443;-68
2023/08/10 01:58:41;;;;;;;56.67;2.40;;;;;;;;;;5071815;28;20901;-68
2023/08/10 02:01:10;;;;;;;56.67;2.03;;;;;;;;;;5070990;28;20439;-68
2023/08/10 02:03:37;;;;;;;56.77;2.30;;;;;;;;;;5071829;28;20463;-68
2023/08/10 02:06:04;;;;;;;57.10;2.27;;;;;;;;;;5071717;28;20443;-68
2023/08/10 02:08:31;;;;;;;58.17;2.70;;;;;;;;;;5071731;28;20450;-68
2023/08/10 02:10:58;;;;;;;57.07;2.60;;;;;;;;;;5071563;28;20483;-68
2023/08/10 02:13:25;;;;;;;56.87;2.40;;;;;;;;;;5071152;28;20474;-68
2023/08/10 02:15:53;;;;;;;56.63;2.10;;;;;;;;;;5071648;28;20487;-68
2023/08/10 02:18:21;;;;;;;56.90;2.40;;;;;;;;;;5071674;28;20440;-68
2023/08/10 02:20:49;;;;;;;57.37;2.53;;;;;;;;;;5071538;28;20439;-68
2023/08/10 02:23:16;;;;;;;56.80;2.20;;;;;;;;;;5071379;28;20463;-68
2023/08/10 02:25:43;;;;;;;57.00;2.60;;;;;;;;;;5071433;28;20440;-68
2023/08/10 02:28:10;;;;;;;56.57;2.37;;;;;;;;;;5071274;28;20443;-68
2023/08/10 02:30:38;;;;;;;56.77;2.60;;;;;;;;;;5071492;28;20514;-68
2023/08/10 02:33:05;;;;;;;56.93;2.57;;;;;;;;;;5071120;28;20471;-68
2023/08/10 02:35:34;;;;;;;56.70;2.30;;;;;;;;;;5071177;28;20546;-68
2023/08/10 02:38:01;;;;;;;56.80;2.33;;;;;;;;;;5071598;28;20499;-68
2023/08/10 02:40:28;;;;;;;57.63;2.80;;;;;;;;;;5071167;28;20439;-69
2023/08/10 02:42:55;;;;;;;56.97;2.60;;;;;;;;;;5071057;28;20554;-68
2023/08/10 02:45:22;;;;;;;56.87;2.30;;;;;;;;;;5071373;28;20458;-69
2023/08/10 02:47:49;;;;;;;56.67;2.30;;;;;;;;;;5071139;28;20958;-68
2023/08/10 02:50:16;;;;;;;57.20;3.07;;;;;;;;;;5071165;28;20850;-69
2023/08/10 02:52:45;;;;;;;57.10;2.63;;;;;;;;;;5071069;28;20470;-69
2023/08/10 02:55:12;;;;;;;56.77;2.50;;;;;;;;;;5071290;28;20505;-68
2023/08/10 02:57:39;;;;;;;57.10;2.80;;;;;;;;;;5071214;28;20445;-68
2023/08/10 03:00:08;;;;;;;56.13;2.30;;;;;;;;;;5071262;28;20439;-68
2023/08/10 03:02:35;;;;;;;57.00;2.73;;;;;;;;;;5070860;28;20526;-69
2023/08/10 03:05:02;;;;;;;57.63;2.53;;;;;;;;;;5071112;28;20454;-68
2023/08/10 03:07:29;;;;;;;56.67;2.47;;;;;;;;;;5070676;28;21026;-68
2023/08/10 03:09:57;;;;;;;56.80;2.30;;;;;;;;;;5070823;28;20451;-68
2023/08/10 03:12:24;;;;;;;56.60;2.43;;;;;;;;;;5073668;28;20439;-68
2023/08/10 03:14:51;;;;;;;56.97;2.70;;;;;;;;;;5075173;28;20438;-68
2023/08/10 03:17:18;;;;;;;56.97;2.67;;;;;;;;;;5075133;28;20442;-68
2023/08/10 03:19:46;;;;;;;56.70;2.60;;;;;;;;;;5074904;28;20545;-68
2023/08/10 03:22:13;;;;;;;57.10;2.90;;;;;;;;;;5075112;28;20970;-68
2023/08/10 03:24:40;;;;;;;56.53;2.30;;;;;;;;;;5074947;28;20472;-68
2023/08/10 03:27:09;;;;;;;57.33;2.57;;;;;;;;;;5074892;28;20462;-68
2023/08/10 03:29:36;;;;;;;56.63;2.30;;;;;;;;;;5074822;28;20447;-68
2023/08/10 03:32:03;;;;;;;56.57;2.23;;;;;;;;;;5074357;28;20479;-68
2023/08/10 03:34:30;;;;;;;56.77;2.40;;;;;;;;;;5074528;28;20466;-68
2023/08/10 03:36:57;;;;;;;56.43;2.57;;;;;;;;;;5074593;28;20446;-68
2023/08/10 03:39:24;;;;;;;56.87;2.90;;;;;;;;;;5074935;28;20446;-69
2023/08/10 03:41:52;;;;;;;56.80;2.50;;;;;;;;;;5074368;28;20435;-68
2023/08/10 03:44:21;;;;;;;56.87;2.40;;;;;;;;;;5074310;28;20475;-68
2023/08/10 03:46:48;;;;;;;56.77;2.40;;;;;;;;;;5074303;28;20788;-69
2023/08/10 03:49:15;;;;;;;56.70;2.13;;;;;;;;;;5074425;28;20788;-68
2023/08/10 03:51:42;;;;;;;57.50;3.73;;;;;;;;;;5074111;28;20486;-69
2023/08/10 03:54:09;;;;;;;56.57;2.40;;;;;;;;;;5074345;28;20467;-68
2023/08/10 03:56:37;;;;;;;56.57;2.20;;;;;;;;;;5074348;28;20451;-68
2023/08/10 03:59:04;;;;;;;56.87;2.60;;;;;;;;;;5074166;28;20549;-68
2023/08/10 04:01:33;;;;;;;56.87;2.67;;;;;;;;;;5074082;28;20447;-69
2023/08/10 04:04:00;;;;;;;57.70;2.87;;;;;;;;;;5073782;28;20471;-69
2023/08/10 04:06:27;;;;;;;56.80;2.40;;;;;;;;;;5074361;28;20439;-69
2023/08/10 04:08:54;;;;;;;56.43;2.20;;;;;;;;;;5074068;28;20474;-69
2023/08/10 04:11:21;;;;;;;56.40;2.03;;;;;;;;;;5073887;28;20483;-68
2023/08/10 04:13:48;;;;;;;56.90;3.00;;;;;;;;;;5073722;28;20459;-69
2023/08/10 04:16:16;;;;;;;56.60;2.47;;;;;;;;;;5073725;28;20439;-69
2023/08/10 04:18:45;;;;;;;57.10;2.50;;;;;;;;;;5074016;28;20483;-69
2023/08/10 04:21:12;;;;;;;57.00;2.30;;;;;;;;;;5073915;28;20440;-69
2023/08/10 04:23:40;;;;;;;57.00;2.60;;;;;;;;;;5072578;28;20463;-69
2023/08/10 04:26:08;;;;;;;56.67;2.27;;;;;;;;;;5073703;28;20454;-69
2023/08/10 04:28:35;;;;;;;56.63;2.40;;;;;;;;;;5073646;28;20452;-69
2023/08/10 04:31:02;;;;;;;56.87;2.50;;;;;;;;;;5073479;28;20475;-69
2023/08/10 04:33:31;;;;;;;56.87;2.47;;;;;;;;;;5073185;28;20463;-68
2023/08/10 04:35:59;;;;;;;56.47;2.30;;;;;;;;;;5073510;28;20466;-69
2023/08/10 04:38:26;;;;;;;56.70;2.33;;;;;;;;;;5073534;28;20455;-69
2023/08/10 04:40:54;;;;;;;56.60;2.50;;;;;;;;;;5073457;28;20834;-69
2023/08/10 04:43:21;;;;;;;56.70;2.80;;;;;;;;;;5073080;28;20467;-69
2023/08/10 04:45:48;;;;;;;56.57;2.30;;;;;;;;;;5073420;28;20454;-69
2023/08/10 04:48:15;;;;;;;57.20;2.60;;;;;;;;;;5073146;28;20542;-69
2023/08/10 04:50:42;;;;;;;57.10;3.17;;;;;;;;;;5073078;28;20479;-68
2023/08/10 04:53:10;;;;;;;56.57;2.30;;;;;;;;;;5073117;28;20867;-69
2023/08/10 04:55:37;;;;;;;56.67;2.50;;;;;;;;;;5072996;28;20436;-70
2023/08/10 04:58:05;;;;;;;56.50;2.50;;;;;;;;;;5072889;28;20444;-69
2023/08/10 05:00:32;;;;;;;56.27;2.07;;;;;;;;;;5073139;28;20456;-69
2023/08/10 05:02:59;;;;;;;56.67;2.60;;;;;;;;;;5072785;28;20834;-69
2023/08/10 05:05:26;;;;;;;57.00;2.20;;;;;;;;;;5072883;28;20943;-69
2023/08/10 05:07:53;;;;;;;56.67;2.20;;;;;;;;;;5072851;28;20447;-69
2023/08/10 05:10:22;;;;;;;57.57;3.27;;;;;;;;;;5072643;28;20506;-70
2023/08/10 05:12:49;;;;;;;56.53;2.50;;;;;;;;;;5072364;28;20540;-69
2023/08/10 05:15:16;;;;;;;56.57;2.27;;;;;;;;;;5072983;28;20782;-69
2023/08/10 05:17:43;;;;;;;56.60;2.10;;;;;;;;;;5072763;28;20449;-70
2023/08/10 05:20:14;;;;;;;56.77;2.40;;;;;;;;;;5072706;28;20443;-70
2023/08/10 05:22:42;;;;;;;56.60;2.50;;;;;;;;;;5072352;28;20554;-69
2023/08/10 05:25:10;;;;;;;59.90;4.50;;;;;;;;;;5072365;28;20451;-69
2023/08/10 05:27:38;;;;;;;56.60;2.40;;;;;;;;;;5072297;28;20959;-70
2023/08/10 05:30:08;;;;;;;56.60;2.50;;;;;;;;;;5072568;28;20463;-70
2023/08/10 05:32:35;;;;;;;56.60;2.67;;;;;;;;;;5070940;28;20487;-69
2023/08/10 05:35:04;;;;;;;56.40;2.20;;;;;;;;;;5072330;28;20450;-69
2023/08/10 05:37:32;;;;;;;56.80;2.47;;;;;;;;;;5072139;28;20462;-70
2023/08/10 05:39:59;;;;;;;56.50;2.40;;;;;;;;;;5072401;28;20474;-70
2023/08/10 05:42:26;;;;;;;56.87;2.50;;;;;;;;;;5071849;28;20447;-69
2023/08/10 05:44:54;;;;;;;59.33;3.13;;;;;;;;;;5072033;28;20978;-70
2023/08/10 05:47:21;;;;;;;56.47;2.23;;;;;;;;;;5072044;28;20447;-70
2023/08/10 05:49:48;;;;;;;56.47;2.13;;;;;;;;;;5072104;28;20451;-69
2023/08/10 05:52:15;;;;;;;56.57;2.40;;;;;;;;;;5071522;28;21001;-69
2023/08/10 05:54:42;;;;;;;56.57;2.30;;;;;;;;;;5071860;28;20991;-70
2023/08/10 05:57:09;;;;;;;56.90;2.40;;;;;;;;;;5071846;28;20965;-70
2023/08/10 05:59:37;;;;;;;56.47;2.23;;;;;;;;;;5072011;28;20478;-70
2023/08/10 06:02:05;;;;;;;56.50;2.13;;;;;;;;;;5071594;28;20446;-69
2023/08/10 06:04:32;;;;;;;58.40;2.80;;;;;;;;;;5071634;28;20469;-70
2023/08/10 06:06:59;;;;;;;56.40;2.40;;;;;;;;;;5071573;28;20443;-70
2023/08/10 06:09:26;;;;;;;56.47;2.30;;;;;;;;;;5071633;28;20451;-70
2023/08/10 06:11:53;;;;;;;56.57;2.10;;;;;;;;;;5071437;28;20822;-70
2023/08/10 06:14:20;;;;;;;57.77;3.10;;;;;;;;;;5071640;28;20470;-70
2023/08/10 06:16:47;;;;;;;56.60;2.50;;;;;;;;;;5071521;28;20443;-69
2023/08/10 06:19:16;;;;;;;56.40;2.20;;;;;;;;;;5071703;28;20892;-69
2023/08/10 06:21:43;;;;;;;56.27;2.20;;;;;;;;;;5071383;28;20443;-69
2023/08/10 06:24:10;;;;;;;58.07;3.80;;;;;;;;;;5071603;28;20470;-69
2023/08/10 06:26:37;;;;;;;56.30;2.20;;;;;;;;;;5071451;28;20439;-69
2023/08/10 06:29:04;;;;;;;57.00;3.30;;;;;;;;;;5071399;28;20443;-69
2023/08/10 06:31:32;;;;;;;56.20;2.17;;;;;;;;;;5071269;28;20487;-69
2023/08/10 06:33:59;;;;;;;56.50;2.10;;;;;;;;;;5071489;28;20474;-70
2023/08/10 06:36:27;;;;;;;56.07;2.20;;;;;;;;;;5071436;28;20535;-70
2023/08/10 06:38:54;;;;;;;56.40;2.20;;;;;;;;;;5071335;28;20516;-70
2023/08/10 06:41:22;;;;;;;58.37;2.77;;;;;;;;;;5071471;28;20436;-69
2023/08/10 06:43:49;;;;;;;56.23;2.07;;;;;;;;;;5070982;28;20463;-69
2023/08/10 06:46:16;;;;;;;56.37;2.23;;;;;;;;;;5070751;28;20443;-69
2023/08/10 06:48:43;;;;;;;56.27;2.20;;;;;;;;;;5071314;28;20443;-69
2023/08/10 06:51:10;;;;;;;56.17;2.20;;;;;;;;;;5071221;28;20475;-69
2023/08/10 06:53:39;;;;;;;56.53;2.17;;;;;;;;;;5071031;28;20505;-69
2023/08/10 06:56:06;;;;;;;56.37;2.13;;;;;;;;;;5071118;28;20444;-69
2023/08/10 06:58:35;;;;;;;56.40;2.20;;;;;;;;;;5071038;28;20474;-69
2023/08/10 07:01:03;;;;;;;56.30;2.10;;;;;;;;;;5070941;28;20460;-69
2023/08/10 07:03:30;;;;;;;56.40;2.20;;;;;;;;;;5070980;28;20505;-69
2023/08/10 07:05:57;;;;;;;56.60;3.13;;;;;;;;;;5071093;28;20905;-69
2023/08/10 07:08:24;;;;;;;56.20;2.57;;;;;;;;;;5071243;28;20450;-69
2023/08/10 07:10:52;;;;;;;56.23;2.20;;;;;;;;;;5070940;28;20443;-69
2023/08/10 07:13:19;;;;;;;56.53;2.60;;;;;;;;;;5070476;28;20490;-67
2023/08/10 07:15:46;;;;;;;56.20;2.10;;;;;;;;;;5071140;28;20443;-67
2023/08/10 07:18:15;;;;;;;56.30;2.00;;;;;;;;;;5071287;28;20439;-67
2023/08/10 07:20:42;;;;;;;56.60;2.27;;;;;;;;;;5070919;28;20439;-67
2023/08/10 07:23:11;;;;;;;56.20;2.40;;;;;;;;;;5070558;28;20455;-67
2023/08/10 07:25:38;;;;;;;56.20;2.10;;;;;;;;;;5070686;28;20939;-67
2023/08/10 07:28:07;;;;;;;57.10;2.67;;;;;;;;;;5071245;28;20492;-69
2023/08/10 07:30:34;;;;;;;56.40;2.10;;;;;;;;;;5071185;28;20439;-69
2023/08/10 07:33:01;;;;;;;56.20;2.33;;;;;;;;;;5070450;28;20487;-69
2023/08/10 07:35:28;;;;;;;56.30;2.30;;;;;;;;;;5070554;28;20935;-69
2023/08/10 07:37:55;;;;;;;56.17;2.00;;;;;;;;;;5070731;28;20954;-67
2023/08/10 07:40:23;;;;;;;57.30;2.60;;;;;;;;;;5070643;28;20443;-68
2023/08/10 07:42:50;;;;;;;56.57;2.33;;;;;;;;;;5070742;28;20467;-67
2023/08/10 07:45:19;;;;;;;56.07;2.03;;;;;;;;;;5070793;28;20440;-68
2023/08/10 07:47:46;;;;;;;56.27;2.40;;;;;;;;;;5070738;28;20443;-67
2023/08/10 07:50:14;;;;;;;56.23;2.00;;;;;;;;;;5070647;28;20451;-67
2023/08/10 07:52:41;;;;;;;56.17;2.00;;;;;;;;;;5070253;28;20501;-68
2023/08/10 07:55:08;;;;;;;56.00;2.00;;;;;;;;;;5070486;28;20439;-68
2023/08/10 07:57:35;;;;;;;56.13;2.00;;;;;;;;;;5070723;28;20812;-67
2023/08/10 08:00:05;;;;;;;56.30;2.20;;;;;;;;;;5073917;28;20936;-68
2023/08/10 08:02:34;;;;;;;56.40;2.30;;;;;;;;;;5074049;28;20767;-67
2023/08/10 08:05:01;;;;;;;56.57;2.33;;;;;;;;;;5074013;28;20445;-67
2023/08/10 08:07:30;;;;;;;56.33;2.40;;;;;;;;;;5073945;28;20439;-67
2023/08/10 08:09:57;;;;;;;56.37;2.47;;;;;;;;;;5073931;28;20443;-68
2023/08/10 08:12:25;;;;;;;56.13;1.90;;;;;;;;;;5073522;28;20479;-68
2023/08/10 08:14:52;;;;;;;56.50;2.30;;;;;;;;;;5073940;28;20454;-70
2023/08/10 08:17:20;;;;;;;56.30;2.30;;;;;;;;;;5073882;28;20815;-70
2023/08/10 08:19:48;;;;;;;56.40;2.40;;;;;;;;;;5073974;28;20455;-70
2023/08/10 08:22:15;;;;;;;56.57;1.93;;;;;;;;;;5073384;28;20440;-69
2023/08/10 08:24:42;;;;;;;56.20;1.90;;;;;;;;;;5073863;28;20459;-69
2023/08/10 08:27:09;;;;;;;56.17;2.23;;;;;;;;;;5073917;28;20934;-70
2023/08/10 08:29:37;;;;;;;55.97;2.00;;;;;;;;;;5073661;28;20478;-69
2023/08/10 08:32:04;;;;;;;56.27;2.20;;;;;;;;;;5073310;28;20491;-70
2023/08/10 08:34:35;;;;;;;56.27;2.00;;;;;;;;;;5073322;28;20974;-70
2023/08/10 08:37:03;;;;;;;56.20;2.20;;;;;;;;;;5073606;28;20450;-70
2023/08/10 08:39:31;;;;;;;56.27;2.33;;;;;;;;;;5073642;28;20449;-70
2023/08/10 08:41:59;;;;;;;56.40;1.90;;;;;;;;;;5073225;28;20435;-70
2023/08/10 08:44:26;;;;;;;55.97;1.80;;;;;;;;;;5073460;28;20455;-70
2023/08/10 08:46:53;;;;;;;56.13;2.03;;;;;;;;;;5073735;28;20450;-69
2023/08/10 08:49:20;;;;;;;56.10;2.10;;;;;;;;;;5073120;28;20444;-70
2023/08/10 08:51:48;;;;;;;56.10;2.20;;;;;;;;;;5073030;28;20443;-70
2023/08/10 08:54:16;;;;;;;56.20;2.10;;;;;;;;;;5073262;28;20541;-70
2023/08/10 08:56:44;;;;;;;56.30;2.00;;;;;;;;;;5073130;28;20473;-69
2023/08/10 08:59:12;;;;;;;55.83;1.80;;;;;;;;;;5073090;28;20443;-69
2023/08/10 09:01:40;;;;;;;56.17;2.10;;;;;;;;;;5072806;28;20813;-69
2023/08/10 09:04:07;;;;;;;56.70;3.20;;;;;;;;;;5073033;28;20467;-69
2023/08/10 09:06:34;;;;;;;56.10;1.90;;;;;;;;;;5073012;28;20439;-69
2023/08/10 09:09:01;;;;;;;56.27;2.00;;;;;;;;;;5072649;28;20443;-70
2023/08/10 09:11:30;;;;;;;56.90;2.20;;;;;;;;;;5072874;28;20450;-70
2023/08/10 09:14:05;;;;;;;56.40;2.30;;;;;;;;;;5072581;28;20494;-70
2023/08/10 09:16:33;;;;;;;56.27;2.10;;;;;;;;;;5072736;28;20497;-70
2023/08/10 09:19:00;;;;;;;56.20;1.97;;;;;;;;;;5072837;28;20444;-70
2023/08/10 09:21:31;;;;;;;56.70;2.10;;;;;;;;;;5072728;28;20450;-70
2023/08/10 09:23:58;;;;;;;56.17;2.00;;;;;;;;;;5072523;28;20832;-70
2023/08/10 09:26:26;;;;;;;56.03;2.20;;;;;;;;;;5072592;28;20454;-70
2023/08/10 09:28:55;;;;;;;56.20;2.13;;;;;;;;;;5072668;28;20493;-70
2023/08/10 09:31:24;;;;;;;56.40;2.40;;;;;;;;;;5072584;28;20451;-70
2023/08/10 09:33:54;;;;;;;56.53;2.57;;;;;;;;;;5071912;28;20484;-70
2023/08/10 09:36:24;;;;;;;56.10;2.23;;;;;;;;;;5072421;28;20444;-70
2023/08/10 09:38:52;;;;;;;56.80;2.20;;;;;;;;;;5072306;28;20463;-69
2023/08/10 09:41:19;;;;;;;57.43;2.43;;;;;;;;;;5072144;28;20466;-69
2023/08/10 09:43:47;;;;;;;56.40;2.20;;;;;;;;;;5072061;28;20486;-68
2023/08/10 09:46:16;;;;;;;56.17;2.10;;;;;;;;;;5072213;28;20440;-68
2023/08/10 09:48:44;;;;;;;56.20;2.17;;;;;;;;;;5072148;28;20446;-68
2023/08/10 09:51:12;;;;;;;56.17;1.90;;;;;;;;;;5072126;28;20815;-67
2023/08/10 09:53:39;;;;;;;56.13;1.90;;;;;;;;;;5071506;28;20487;-68
2023/08/10 09:56:07;;;;;;;56.07;2.07;;;;;;;;;;5071869;28;20442;-68
2023/08/10 09:58:36;;;;;;;56.80;2.87;;;;;;;;;;5072186;28;20470;-67
2023/08/10 10:01:03;;;;;;;56.10;2.13;;;;;;;;;;5071819;28;20518;-68
2023/08/10 10:03:33;;;;;;;56.17;2.10;;;;;;;;;;5071555;28;20463;-68
2023/08/10 10:06:01;;;;;;;55.97;2.20;;;;;;;;;;5071706;28;20534;-68
2023/08/10 10:08:28;;;;;;;56.40;2.10;;;;;;;;;;5071625;28;20577;-68
2023/08/10 10:10:57;;;;;;;56.80;2.50;;;;;;;;;;5072019;28;20458;-68
2023/08/10 10:13:25;;;;;;;56.27;2.00;;;;;;;;;;5071175;28;20487;-68
2023/08/10 10:15:53;;;;;;;56.17;2.20;;;;;;;;;;5071462;28;20861;-68
2023/08/10 10:18:20;;;;;;;56.37;2.00;;;;;;;;;;5071471;28;20936;-68
2023/08/10 10:20:50;;;;;;;55.87;1.87;;;;;;;;;;5070788;28;20440;-68
2023/08/10 10:23:18;;;;;;;55.77;1.70;;;;;;;;;;5071604;28;20463;-68
2023/08/10 10:25:56;;;;;;;72.17;2.80;;;;;;;;;;5071478;28;20439;-68
2023/08/10 10:28:24;;;;;;;56.00;1.97;;;;;;;;;;5071835;28;20475;-69
2023/08/10 10:30:55;;;;;;;55.97;1.70;;;;;;;;;;5071418;28;20829;-69
2023/08/10 10:33:23;;;;;;;55.47;1.97;;;;;;;;;;5070887;28;20560;-69
2023/08/10 10:36:05;;;;;;;60.37;2.10;;;;;;;;;;5071473;28;20790;-69
2023/08/10 10:38:33;;;;;;;55.80;1.60;;;;;;;;;;5071344;28;20546;-69
2023/08/10 10:41:09;;;;;;;55.53;1.80;;;;;;;;;;5071335;28;20518;-69
2023/08/10 10:43:36;;;;;;;55.57;1.53;;;;;;;;;;5071048;28;20462;-69
2023/08/10 10:46:03;;;;;;;55.60;2.00;;;;;;;;;;5071006;28;20443;-69
2023/08/10 10:48:34;;;;;;;55.60;1.70;;;;;;;;;;5071354;28;20451;-69
2023/08/10 10:51:03;;;;;;;55.50;1.60;;;;;;;;;;5071326;28;20512;-69
2023/08/10 10:53:30;;;;;;;55.37;1.70;;;;;;;;;;5070882;28;20540;-69
2023/08/10 10:55:58;;;;;;;55.57;1.77;;;;;;;;;;5071112;28;20447;-69
2023/08/10 10:58:29;;;;;;;55.13;1.47;;;;;;;;;;5070981;28;20501;-69
2023/08/10 11:00:56;;;;;;;55.30;1.50;;;;;;;;;;5071229;28;20534;-69
2023/08/10 11:03:23;;;;;;;55.20;1.70;;;;;;;;;;5070913;28;21144;-69
2023/08/10 11:05:50;;;;;;;55.30;1.70;;;;;;;;;;5070994;28;20454;-69
2023/08/10 11:08:17;;;;;;;55.40;1.50;;;;;;;;;;5071077;28;20823;-69
2023/08/10 11:10:45;;;;;;;55.27;1.60;;;;;;;;;;5071006;28;20447;-69
2023/08/10 11:13:13;;;;;;;55.20;1.60;;;;;;;;;;5070502;28;20870;-69
2023/08/10 11:15:40;;;;;;;55.17;1.50;;;;;;;;;;5071010;28;20439;-69
2023/08/10 11:18:11;;;;;;;55.27;1.60;;;;;;;;;;5071078;28;20451;-69
2023/08/10 11:20:43;;;;;;;54.90;1.40;;;;;;;;;;5070992;28;20440;-69
2023/08/10 11:23:10;;;;;;;54.97;1.40;;;;;;;;;;5070490;28;20459;-70
2023/08/10 11:25:37;;;;;;;55.20;1.50;;;;;;;;;;5070644;28;20447;-69
2023/08/10 11:28:04;;;;;;;55.17;1.60;;;;;;;;;;5070963;28;20440;-69
2023/08/10 11:30:33;;;;;;;55.70;2.30;;;;;;;;;;5070949;28;20443;-69
2023/08/10 11:33:00;;;;;;;55.07;1.50;;;;;;;;;;5072440;28;20487;-69
2023/08/10 11:35:27;;;;;;;55.50;1.60;;;;;;;;;;5074670;28;20449;-69
2023/08/10 11:37:54;;;;;;;54.87;1.40;;;;;;;;;;5074426;28;20494;-69
2023/08/10 11:40:22;;;;;;;55.10;1.70;;;;;;;;;;5074448;28;20447;-69
2023/08/10 11:42:52;;;;;;;55.07;1.80;;;;;;;;;;5074322;28;20546;-69
2023/08/10 11:45:20;;;;;;;54.80;1.50;;;;;;;;;;5074435;28;20446;-69
2023/08/10 11:47:55;;;;;;;54.67;1.60;;;;;;;;;;5074236;28;20974;-69
2023/08/10 11:50:23;;;;;;;55.00;1.70;;;;;;;;;;5074776;28;20885;-70
2023/08/10 11:52:51;;;;;;;55.40;1.87;;;;;;;;;;5073842;28;20487;-69
2023/08/10 11:55:18;;;;;;;54.80;1.57;;;;;;;;;;5074097;28;20443;-70
2023/08/10 11:57:46;;;;;;;55.30;2.00;;;;;;;;;;5074305;28;20443;-69
2023/08/10 12:00:17;;;;;;;54.87;1.60;;;;;;;;;;5074241;28;20447;-70
2023/08/10 12:02:58;;;;;;;54.97;1.93;;;;;;;;;;5074247;28;20478;-69
2023/08/10 12:05:41;;;;;;;54.67;1.60;;;;;;;;;;5074222;28;20508;-70
2023/08/10 12:08:10;;;;;;;55.10;2.07;;;;;;;;;;5074089;28;20439;-70
2023/08/10 12:10:37;;;;;;;55.30;2.00;;;;;;;;;;5074092;28;20822;-70
2023/08/10 12:13:05;;;;;;;54.80;1.60;;;;;;;;;;5073625;28;20870;-70
2023/08/10 12:15:32;;;;;;;55.30;1.97;;;;;;;;;;5073680;28;20450;-69
2023/08/10 12:18:01;;;;;;;55.07;1.60;;;;;;;;;;5073805;28;20927;-69
2023/08/10 12:20:28;;;;;;;54.73;1.90;;;;;;;;;;5073960;28;20792;-69
2023/08/10 12:22:55;;;;;;;54.77;2.03;;;;;;;;;;5073408;28;20463;-69
2023/08/10 12:25:22;;;;;;;55.17;1.80;;;;;;;;;;5073572;28;20447;-70
2023/08/10 12:27:50;;;;;;;56.07;1.87;;;;;;;;;;5073641;28;20447;-69
2023/08/10 12:30:17;;;;;;;54.80;1.80;;;;;;;;;;5074178;28;20458;-69
2023/08/10 12:32:44;;;;;;;55.03;1.63;;;;;;;;;;5073347;28;20460;-69
2023/08/10 12:35:14;;;;;;;54.80;1.87;;;;;;;;;;5073524;28;20473;-69
2023/08/10 12:37:41;;;;;;;54.90;1.90;;;;;;;;;;5073373;28;20463;-69
2023/08/10 12:40:10;;;;;;;54.87;1.80;;;;;;;;;;5073496;28;20451;-70
2023/08/10 12:42:38;;;;;;;55.20;1.70;;;;;;;;;;5072911;28;20510;-70
2023/08/10 12:45:05;;;;;;;55.27;2.10;;;;;;;;;;5072857;28;20497;-70
2023/08/10 12:47:32;;;;;;;54.63;1.93;;;;;;;;;;5073382;28;20533;-70
2023/08/10 12:49:59;;;;;;;54.43;1.60;;;;;;;;;;5073489;28;20446;-70
2023/08/10 12:52:28;;;;;;;54.70;2.00;;;;;;;;;;5073098;28;20453;-70
2023/08/10 12:54:55;;;;;;;54.70;1.90;;;;;;;;;;5073530;28;20547;-70
2023/08/10 12:57:22;;;;;;;54.57;1.60;;;;;;;;;;5073263;28;20451;-70
2023/08/10 12:59:49;;;;;;;54.77;1.60;;;;;;;;;;5073232;28;20446;-69
2023/08/10 13:02:17;;;;;;;55.53;2.00;;;;;;;;;;5072978;28;20443;-69
2023/08/10 13:04:44;;;;;;;55.70;2.00;;;;;;;;;;5072848;28;21007;-69
2023/08/10 13:07:11;;;;;;;54.70;1.97;;;;;;;;;;5072810;28;20448;-69
2023/08/10 13:09:40;;;;;;;55.03;1.80;;;;;;;;;;5072749;28;20447;-69
2023/08/10 13:12:07;;;;;;;55.00;1.73;;;;;;;;;;5072995;28;20500;-69
2023/08/10 13:14:34;;;;;;;55.20;1.83;;;;;;;;;;5072798;28;20517;-69
2023/08/10 13:17:01;;;;;;;55.20;2.17;;;;;;;;;;5072934;28;20440;-69
2023/08/10 13:19:28;;;;;;;54.73;1.60;;;;;;;;;;5072958;28;20440;-69
2023/08/10 13:21:56;;;;;;;55.57;2.27;;;;;;;;;;5072468;28;20466;-69
2023/08/10 13:24:23;;;;;;;54.80;1.97;;;;;;;;;;5072383;28;20528;-70
2023/08/10 13:26:51;;;;;;;54.70;1.50;;;;;;;;;;5072742;28;20447;-70
2023/08/10 13:29:18;;;;;;;54.80;1.80;;;;;;;;;;5072638;28;20439;-70
2023/08/10 13:31:46;;;;;;;55.17;1.97;;;;;;;;;;5072292;28;20435;-70
2023/08/10 13:34:13;;;;;;;54.80;1.70;;;;;;;;;;5072775;28;20487;-70
2023/08/10 13:36:40;;;;;;;55.00;1.90;;;;;;;;;;5072238;28;20443;-69
2023/08/10 13:39:09;;;;;;;54.60;1.70;;;;;;;;;;5072322;28;20487;-70
2023/08/10 13:41:37;;;;;;;54.70;1.77;;;;;;;;;;5072286;28;20447;-70
2023/08/10 13:44:05;;;;;;;54.37;1.50;;;;;;;;;;5071968;28;21070;-70
2023/08/10 13:46:33;;;;;;;54.70;1.87;;;;;;;;;;5071937;28;20448;-70
2023/08/10 13:49:00;;;;;;;55.20;2.33;;;;;;;;;;5072043;28;20451;-70
2023/08/10 13:51:27;;;;;;;54.80;2.23;;;;;;;;;;5071908;28;20849;-70
2023/08/10 13:53:54;;;;;;;54.50;1.63;;;;;;;;;;5071792;28;20522;-70
2023/08/10 13:56:21;;;;;;;55.40;2.07;;;;;;;;;;5071031;28;20796;-70
2023/08/10 13:58:48;;;;;;;54.47;1.80;;;;;;;;;;5071856;28;20443;-70
2023/08/10 14:01:17;;;;;;;54.70;2.07;;;;;;;;;;5071846;28;20470;-70
2023/08/10 14:03:44;;;;;;;54.77;1.97;;;;;;;;;;5071358;28;20509;-70
2023/08/10 14:06:12;;;;;;;54.60;1.77;;;;;;;;;;5071741;28;20797;-70
2023/08/10 14:08:39;;;;;;;54.70;1.60;;;;;;;;;;5071808;28;20446;-69
2023/08/10 14:11:06;;;;;;;54.70;1.53;;;;;;;;;;5071685;28;20822;-69
2023/08/10 14:13:33;;;;;;;55.07;2.10;;;;;;;;;;5071189;28;20456;-69
2023/08/10 14:16:00;;;;;;;54.80;1.80;;;;;;;;;;5071668;28;20435;-69
2023/08/10 14:18:29;;;;;;;54.90;1.60;;;;;;;;;;5071414;28;20443;-69
2023/08/10 14:20:56;;;;;;;54.60;1.90;;;;;;;;;;5071596;28;20439;-69
2023/08/10 14:23:23;;;;;;;54.97;1.90;;;;;;;;;;5071046;28;20459;-69
2023/08/10 14:25:50;;;;;;;54.63;1.70;;;;;;;;;;5071478;28;20801;-70
2023/08/10 14:28:17;;;;;;;55.50;2.07;;;;;;;;;;5071671;28;20443;-69
2023/08/10 14:30:44;;;;;;;54.83;1.80;;;;;;;;;;5071362;28;20462;-70
2023/08/10 14:33:11;;;;;;;55.17;2.00;;;;;;;;;;5070977;28;20459;-70